createdAt,value
2023-02-17T00:01:38.892Z,227.93
2023-02-17T00:04:06.962Z,246.45
2023-02-17T00:06:34.935Z,229.15
2023-02-17T00:09:03.515Z,226.93
2023-02-17T00:11:31.632Z,220.57
2023-02-17T00:14:00.249Z,252.63
2023-02-17T00:16:30.284Z,243.40
2023-02-17T00:19:00.938Z,227.82
2023-02-17T00:21:31.830Z,232.38
2023-02-17T00:24:01.029Z,222.18
2023-02-17T00:26:29.484Z,241.20
2023-02-17T00:28:59.025Z,230.90
2023-02-17T00:31:27.095Z,231.45
2023-02-17T00:33:57.439Z,230.43
2023-02-17T00:36:27.332Z,240.25
2023-02-17T00:38:57.640Z,247.60
2023-02-17T00:41:29.086Z,234.32
2023-02-17T00:43:59.480Z,241.30
2023-02-17T00:46:27.964Z,243.73
2023-02-17T00:48:57.900Z,245.43
2023-02-17T00:51:26.774Z,238.90
2023-02-17T00:53:55.292Z,249.63
2023-02-17T00:56:23.236Z,228.00
2023-02-17T00:58:51.172Z,230.50
2023-02-17T01:01:19.280Z,241.77
2023-02-17T01:03:47.256Z,237.40
2023-02-17T01:06:26.038Z,232.02
2023-02-17T01:08:54.827Z,244.95
2023-02-17T01:11:26.529Z,239.30
2023-02-17T01:13:55.612Z,227.38
2023-02-17T01:16:27.383Z,240.35
2023-02-17T01:18:56.300Z,230.63
2023-02-17T01:21:30.064Z,251.88
2023-02-17T01:24:00.554Z,262.25
2023-02-17T01:26:32.289Z,238.48
2023-02-17T01:29:03.077Z,245.57
2023-02-17T01:31:31.360Z,242.00
2023-02-17T01:34:03.208Z,251.75
2023-02-17T01:36:33.423Z,251.02
2023-02-17T01:39:01.512Z,249.57
2023-02-17T01:41:30.753Z,239.48
2023-02-17T01:44:21.712Z,238.68
2023-02-17T01:46:52.149Z,234.10
2023-02-17T01:49:29.732Z,243.65
2023-02-17T01:52:08.476Z,248.63
2023-02-17T01:54:42.184Z,250.70
2023-02-17T01:57:12.501Z,245.15
2023-02-17T01:59:42.211Z,250.65
2023-02-17T02:02:11.126Z,261.40
2023-02-17T02:04:43.121Z,242.80
2023-02-17T02:07:18.582Z,231.27
2023-02-17T02:09:51.728Z,232.18
2023-02-17T02:12:23.807Z,233.15
2023-02-17T02:17:34.533Z,249.75
2023-02-17T02:20:41.164Z,218.52
2023-02-17T02:23:32.110Z,238.65
2023-02-17T02:26:34.114Z,235.48
2023-02-17T02:29:28.588Z,220.27
2023-02-17T02:32:11.336Z,244.18
2023-02-17T02:34:47.398Z,240.77
2023-02-17T02:37:20.191Z,240.18
2023-02-17T02:39:53.719Z,237.18
2023-02-17T02:42:25.394Z,244.20
2023-02-17T02:44:53.437Z,254.38
2023-02-17T02:47:46.481Z,254.90
2023-02-17T02:50:32.652Z,264.85
2023-02-17T02:53:19.595Z,241.32
2023-02-17T02:55:58.657Z,248.25
2023-02-17T02:58:38.491Z,270.40
2023-02-17T03:01:18.482Z,289.30
2023-02-17T03:03:59.488Z,252.98
2023-02-17T03:06:36.635Z,296.33
2023-02-17T03:09:11.883Z,253.93
2023-02-17T03:11:41.242Z,270.98
2023-02-17T03:14:12.816Z,273.83
2023-02-17T03:16:43.250Z,266.42
2023-02-17T03:19:13.699Z,262.95
2023-02-17T03:21:49.732Z,278.58
2023-02-17T03:24:18.367Z,269.50
2023-02-17T03:26:46.731Z,268.63
2023-02-17T03:29:15.399Z,298.75
2023-02-17T03:31:43.894Z,257.40
2023-02-17T03:34:11.998Z,279.00
2023-02-17T03:36:40.011Z,256.25
2023-02-17T03:39:09.454Z,246.68
2023-02-17T03:41:37.660Z,248.85
2023-02-17T03:44:06.048Z,268.08
2023-02-17T03:46:34.294Z,277.77
2023-02-17T03:49:02.347Z,269.92
2023-02-17T03:51:30.304Z,255.48
2023-02-17T03:53:58.253Z,263.25
2023-02-17T03:56:27.621Z,259.58
2023-02-17T03:58:56.289Z,290.85
2023-02-17T04:01:24.486Z,272.63
2023-02-17T04:03:52.577Z,281.02
2023-02-17T04:06:20.702Z,250.52
2023-02-17T04:08:48.814Z,258.23
2023-02-17T04:11:18.511Z,246.73
2023-02-17T04:13:48.077Z,255.68
2023-02-17T04:16:16.044Z,271.55
2023-02-17T04:18:44.117Z,257.73
2023-02-17T04:21:12.162Z,248.70
2023-02-17T04:23:40.204Z,260.40
2023-02-17T04:26:09.527Z,264.00
2023-02-17T04:28:40.388Z,266.58
2023-02-17T04:31:10.227Z,284.67
2023-02-17T04:33:38.879Z,276.48
2023-02-17T04:36:07.693Z,269.00
2023-02-17T04:38:36.363Z,261.58
2023-02-17T04:41:04.908Z,254.77
2023-02-17T04:43:32.966Z,241.20
2023-02-17T04:46:01.029Z,261.00
2023-02-17T04:48:30.584Z,258.95
2023-02-17T04:50:58.756Z,271.75
2023-02-17T04:53:26.757Z,266.52
2023-02-17T04:55:55.075Z,252.60
2023-02-17T04:58:23.142Z,249.55
2023-02-17T05:00:52.440Z,250.57
2023-02-17T05:03:20.951Z,248.80
2023-02-17T05:05:50.875Z,246.95
2023-02-17T05:08:19.339Z,240.88
2023-02-17T05:10:47.428Z,237.30
2023-02-17T05:13:15.400Z,252.40
2023-02-17T05:15:44.764Z,249.35
2023-02-17T05:18:12.883Z,257.80
2023-02-17T05:20:41.384Z,239.05
2023-02-17T05:23:10.701Z,249.10
2023-02-17T05:25:40.808Z,248.15
2023-02-17T05:28:08.733Z,248.30
2023-02-17T05:30:36.857Z,238.18
2023-02-17T05:33:04.981Z,256.95
2023-02-17T05:35:35.233Z,257.13
2023-02-17T05:38:03.254Z,258.98
2023-02-17T05:40:32.762Z,267.23
2023-02-17T05:43:00.829Z,257.52
2023-02-17T05:45:28.797Z,254.57
2023-02-17T05:47:56.714Z,252.73
2023-02-17T05:50:24.751Z,249.18
2023-02-17T05:52:52.708Z,244.00
2023-02-17T05:55:22.150Z,248.77
2023-02-17T05:57:53.941Z,242.35
2023-02-17T06:00:22.443Z,227.32
2023-02-17T06:02:50.445Z,250.90
2023-02-17T06:05:18.710Z,248.80
2023-02-17T06:07:46.873Z,242.93
2023-02-17T06:10:15.033Z,239.52
2023-02-17T06:12:42.989Z,245.38
2023-02-17T06:15:12.616Z,238.45
2023-02-17T06:17:40.643Z,246.20
2023-02-17T06:20:11.016Z,260.50
2023-02-17T06:22:39.056Z,251.07
2023-02-17T06:25:07.954Z,247.55
2023-02-17T06:27:36.281Z,249.38
2023-02-17T06:30:05.433Z,246.93
2023-02-17T06:32:35.228Z,245.88
2023-02-17T06:35:03.496Z,255.55
2023-02-17T06:37:31.438Z,248.23
2023-02-17T06:39:59.405Z,258.45
2023-02-17T06:42:27.557Z,245.25
2023-02-17T06:44:55.560Z,255.80
2023-02-17T06:47:23.571Z,253.50
2023-02-17T06:49:52.995Z,245.68
2023-02-17T06:52:20.970Z,245.20
2023-02-17T06:54:49.205Z,248.77
2023-02-17T06:57:17.924Z,248.43
2023-02-17T06:59:46.401Z,244.32
2023-02-17T07:02:15.688Z,241.68
2023-02-17T07:04:44.648Z,246.40
2023-02-17T07:07:14.036Z,240.82
2023-02-17T07:09:43.524Z,245.63
2023-02-17T07:12:11.447Z,243.18
2023-02-17T07:14:39.620Z,234.55
2023-02-17T07:17:07.695Z,243.63
2023-02-17T07:19:35.926Z,235.18
2023-02-17T07:22:03.875Z,243.63
2023-02-17T07:24:33.981Z,239.32
2023-02-17T07:27:02.162Z,238.02
2023-02-17T07:29:30.153Z,246.93
2023-02-17T07:31:58.976Z,236.35
2023-02-17T07:34:27.214Z,241.75
2023-02-17T07:36:55.165Z,239.40
2023-02-17T07:39:23.219Z,254.98
2023-02-17T07:41:52.892Z,234.32
2023-02-17T07:44:21.233Z,241.90
2023-02-17T07:46:49.473Z,248.70
2023-02-17T07:49:17.796Z,242.15
2023-02-17T07:51:46.052Z,244.35
2023-02-17T07:54:14.212Z,240.63
2023-02-17T07:56:42.323Z,234.55
2023-02-17T07:59:13.166Z,243.63
2023-02-17T08:01:41.720Z,236.35
2023-02-17T08:04:09.941Z,237.40
2023-02-17T08:06:41.375Z,241.98
2023-02-17T08:09:29.282Z,239.50
2023-02-17T08:12:15.132Z,241.55
2023-02-17T08:14:44.454Z,233.23
2023-02-17T08:17:12.433Z,226.10
2023-02-17T08:19:48.078Z,236.32
2023-02-17T08:22:17.629Z,240.88
2023-02-17T08:24:46.540Z,233.90
2023-02-17T08:27:16.066Z,232.82
2023-02-17T08:29:45.999Z,239.98
2023-02-17T08:32:15.582Z,238.18
2023-02-17T08:34:43.926Z,231.10
2023-02-17T08:37:12.808Z,234.70
2023-02-17T08:39:41.003Z,244.60
2023-02-17T08:42:09.589Z,240.73
2023-02-17T08:44:38.903Z,235.93
2023-02-17T08:47:10.427Z,234.48
2023-02-17T08:49:38.483Z,228.88
2023-02-17T08:52:06.868Z,235.68
2023-02-17T08:54:35.100Z,235.50
2023-02-17T08:57:03.270Z,232.02
2023-02-17T08:59:31.988Z,243.07
2023-02-17T09:02:00.901Z,235.48
2023-02-17T09:04:30.365Z,236.20
2023-02-17T09:06:59.692Z,241.15
2023-02-17T09:09:29.204Z,240.70
2023-02-17T09:11:59.300Z,242.57
2023-02-17T09:14:27.792Z,241.75
2023-02-17T09:16:56.833Z,246.93
2023-02-17T09:19:26.172Z,249.13
2023-02-17T09:21:55.600Z,250.85
2023-02-17T09:24:23.701Z,237.10
2023-02-17T09:26:51.741Z,237.75
2023-02-17T09:29:20.076Z,235.18
2023-02-17T09:31:48.353Z,238.93
2023-02-17T09:34:16.944Z,238.73
2023-02-17T09:36:45.511Z,251.70
2023-02-17T09:39:15.146Z,250.80
2023-02-17T09:41:48.416Z,258.83
2023-02-17T09:44:23.265Z,251.40
2023-02-17T09:47:02.533Z,244.57
2023-02-17T09:49:40.063Z,253.43
2023-02-17T09:52:14.360Z,235.75
2023-02-17T09:55:00.368Z,242.48
2023-02-17T09:57:32.725Z,230.65
2023-02-17T10:00:10.544Z,235.68
2023-02-17T10:02:48.194Z,233.90
2023-02-17T10:05:23.700Z,237.88
2023-02-17T10:07:57.290Z,239.68
2023-02-17T10:10:32.783Z,232.27
2023-02-17T10:13:03.286Z,245.43
2023-02-17T10:15:37.037Z,239.80
2023-02-17T10:18:13.309Z,233.70
2023-02-17T10:20:46.313Z,232.18
2023-02-17T10:23:19.966Z,240.65
2023-02-17T10:26:09.873Z,252.57
2023-02-17T10:28:50.310Z,247.18
2023-02-17T10:31:34.913Z,243.88
2023-02-17T10:34:05.485Z,236.45
2023-02-17T10:36:52.104Z,248.65
2023-02-17T10:39:47.451Z,231.38
2023-02-17T10:42:23.499Z,240.73
2023-02-17T10:44:54.219Z,242.05
2023-02-17T10:47:23.321Z,241.75
2023-02-17T10:49:54.049Z,234.15
2023-02-17T10:52:25.037Z,239.43
2023-02-17T10:54:59.821Z,234.65
2023-02-17T10:57:34.145Z,240.57
2023-02-17T11:00:02.448Z,232.77
2023-02-17T11:02:38.207Z,220.05
2023-02-17T11:05:07.352Z,229.18
2023-02-17T11:07:38.536Z,230.63
2023-02-17T11:10:24.427Z,228.20
2023-02-17T11:12:55.841Z,231.05
2023-02-17T11:15:29.901Z,220.98
2023-02-17T11:18:00.711Z,224.88
2023-02-17T11:20:36.622Z,223.48
2023-02-17T11:23:21.958Z,226.68
2023-02-17T11:26:02.275Z,224.60
2023-02-17T11:28:31.682Z,217.35
2023-02-17T11:31:03.002Z,216.93
2023-02-17T11:33:35.546Z,219.63
2023-02-17T11:36:06.077Z,218.50
2023-02-17T11:38:44.844Z,213.25
2023-02-17T11:41:13.777Z,215.52
2023-02-17T11:43:54.171Z,227.68
2023-02-17T11:46:34.884Z,220.70
2023-02-17T11:49:26.755Z,214.25
2023-02-17T11:52:13.184Z,219.68
2023-02-17T11:54:57.669Z,218.73
2023-02-17T11:57:39.411Z,215.98
2023-02-17T12:00:19.000Z,216.27
2023-02-17T12:03:44.064Z,213.90
2023-02-17T12:06:19.254Z,222.18
2023-02-17T12:09:04.896Z,219.43
2023-02-17T12:11:42.002Z,220.10
2023-02-17T12:14:35.614Z,216.52
2023-02-17T12:17:15.308Z,217.20
2023-02-17T12:19:55.644Z,217.80
2023-02-17T12:22:31.865Z,215.30
2023-02-17T12:25:20.293Z,216.93
2023-02-17T12:28:11.701Z,215.45
2023-02-17T12:30:55.611Z,217.20
2023-02-17T12:33:46.157Z,209.80
2023-02-17T12:36:17.890Z,212.30
2023-02-17T12:38:51.596Z,212.25
2023-02-17T12:41:25.303Z,209.75
2023-02-17T12:43:57.972Z,214.80
2023-02-17T12:46:30.139Z,211.48
2023-02-17T12:49:07.664Z,211.25
2023-02-17T12:51:42.894Z,204.65
2023-02-17T12:54:19.820Z,208.30
2023-02-17T12:57:09.656Z,207.45
2023-02-17T12:59:40.246Z,201.25
2023-02-17T13:02:13.212Z,208.15
2023-02-17T13:04:45.655Z,215.45
2023-02-17T13:07:38.284Z,206.75
2023-02-17T13:10:08.730Z,208.77
2023-02-17T13:12:42.776Z,209.25
2023-02-17T13:15:47.055Z,214.82
2023-02-17T13:18:28.763Z,204.63
2023-02-17T13:21:01.677Z,210.75
2023-02-17T13:23:38.312Z,207.80
2023-02-17T13:26:32.476Z,207.52
2023-02-17T13:29:22.865Z,206.13
2023-02-17T13:31:55.714Z,206.13
2023-02-17T13:34:31.391Z,201.77
2023-02-17T13:37:05.574Z,198.95
2023-02-17T13:39:37.434Z,196.77
2023-02-17T13:42:24.299Z,201.88
2023-02-17T13:44:52.651Z,201.85
2023-02-17T13:47:37.629Z,199.52
2023-02-17T13:50:27.947Z,199.57
2023-02-17T13:52:58.147Z,204.70
2023-02-17T13:55:26.773Z,201.80
2023-02-17T13:57:57.896Z,197.60
2023-02-17T14:00:28.820Z,202.60
2023-02-17T14:02:59.656Z,199.73
2023-02-17T14:05:37.861Z,196.68
2023-02-17T14:08:15.963Z,193.77
2023-02-17T14:10:45.890Z,200.05
2023-02-17T14:13:15.305Z,200.32
2023-02-17T14:15:56.645Z,203.60
2023-02-17T14:18:37.907Z,202.00
2023-02-17T14:21:11.763Z,201.77
2023-02-17T14:23:52.865Z,195.65
2023-02-17T14:26:31.018Z,192.30
2023-02-17T14:29:03.653Z,192.90
2023-02-17T14:31:40.299Z,195.52
2023-02-17T14:34:14.154Z,200.73
2023-02-17T14:36:42.513Z,201.02
2023-02-17T14:39:16.380Z,195.93
2023-02-17T14:41:46.045Z,207.23
2023-02-17T14:44:14.150Z,211.23
2023-02-17T14:46:42.227Z,207.32
2023-02-17T14:49:10.452Z,207.15
2023-02-17T14:51:40.158Z,206.10
2023-02-17T14:54:17.475Z,204.32
2023-02-17T14:56:50.796Z,203.93
2023-02-17T14:59:18.909Z,205.35
2023-02-17T15:01:47.443Z,202.48
2023-02-17T15:04:15.484Z,204.27
2023-02-17T15:06:46.508Z,200.45
2023-02-17T15:09:19.202Z,199.70
2023-02-17T15:11:49.063Z,202.60
2023-02-17T15:14:21.034Z,200.00
2023-02-17T15:19:18.886Z,202.77
2023-02-17T15:21:50.069Z,202.63
2023-02-17T15:24:27.287Z,203.68
2023-02-17T15:26:57.836Z,203.60
2023-02-17T15:29:27.765Z,204.70
2023-02-17T15:31:58.162Z,203.13
2023-02-17T15:34:30.877Z,202.77
2023-02-17T15:36:59.332Z,204.40
2023-02-17T15:39:29.567Z,202.48
2023-02-17T15:42:14.210Z,209.45
2023-02-17T15:44:46.565Z,205.40
2023-02-17T15:47:18.991Z,210.32
2023-02-17T15:49:48.808Z,201.77
2023-02-17T15:52:17.247Z,199.90
2023-02-17T15:54:48.288Z,203.52
2023-02-17T15:57:24.026Z,202.43
2023-02-17T15:59:54.866Z,204.30
2023-02-17T16:02:26.189Z,204.00
2023-02-17T16:04:54.680Z,206.27
2023-02-17T16:07:23.644Z,203.40
2023-02-17T16:09:53.123Z,201.30
2023-02-17T16:12:27.040Z,198.02
2023-02-17T16:14:56.045Z,200.40
2023-02-17T16:17:24.572Z,197.82
2023-02-17T16:19:52.884Z,195.07
2023-02-17T16:22:21.787Z,206.48
2023-02-17T16:24:51.921Z,205.75
2023-02-17T16:27:23.983Z,207.18
2023-02-17T16:32:19.964Z,212.43
2023-02-17T16:34:48.804Z,207.55
2023-02-17T16:37:18.583Z,210.90
2023-02-17T16:39:47.502Z,210.25
2023-02-17T16:42:17.345Z,210.15
2023-02-17T16:44:45.493Z,207.68
2023-02-17T16:47:22.359Z,205.70
2023-02-17T16:49:50.679Z,208.68
2023-02-17T16:52:25.814Z,205.88
2023-02-17T16:54:54.459Z,200.77
2023-02-17T16:57:25.029Z,203.88
2023-02-17T16:59:53.905Z,203.60
2023-02-17T17:02:22.294Z,200.63
2023-02-17T17:04:50.455Z,206.00
2023-02-17T17:07:19.075Z,200.85
2023-02-17T17:10:06.917Z,196.63
2023-02-17T17:12:36.568Z,204.95
2023-02-17T17:15:05.727Z,202.30
2023-02-17T17:17:41.422Z,195.95
2023-02-17T17:20:16.258Z,197.10
2023-02-17T17:22:46.633Z,197.32
2023-02-17T17:25:15.021Z,200.50
2023-02-17T17:27:45.877Z,198.40
2023-02-17T17:30:19.953Z,199.15
2023-02-17T17:32:48.455Z,200.55
2023-02-17T17:35:16.965Z,199.05
2023-02-17T17:37:45.045Z,195.25
2023-02-17T17:40:19.188Z,192.00
2023-02-17T17:42:48.912Z,195.45
2023-02-17T17:45:17.851Z,194.70
2023-02-17T17:47:46.477Z,195.48
2023-02-17T17:50:18.548Z,193.95
2023-02-17T17:55:16.435Z,193.90
2023-02-17T17:57:44.481Z,192.40
2023-02-17T18:00:18.579Z,197.38
2023-02-17T18:02:46.532Z,194.48
2023-02-17T18:05:14.636Z,195.65
2023-02-17T18:07:43.750Z,197.90
2023-02-17T18:10:14.151Z,200.55
2023-02-17T18:12:45.355Z,196.23
2023-02-17T18:15:16.572Z,198.23
2023-02-17T18:17:44.862Z,197.75
2023-02-17T18:20:14.725Z,196.95
2023-02-17T18:22:42.768Z,199.63
2023-02-17T18:25:11.867Z,197.18
2023-02-17T18:27:43.135Z,198.40
2023-02-17T18:30:15.846Z,199.05
2023-02-17T18:32:44.530Z,195.90
2023-02-17T18:35:13.267Z,193.13
2023-02-17T18:37:41.835Z,199.43
2023-02-17T18:40:13.207Z,200.80
2023-02-17T18:42:42.249Z,196.07
2023-02-17T18:45:11.141Z,193.07
2023-02-17T18:47:40.548Z,193.43
2023-02-17T18:50:11.405Z,195.98
2023-02-17T18:52:40.356Z,196.45
2023-02-17T18:55:09.585Z,190.95
2023-02-17T18:57:38.035Z,195.10
2023-02-17T19:00:09.482Z,196.82
2023-02-17T19:02:38.207Z,194.00
2023-02-17T19:05:10.070Z,192.90
2023-02-17T19:07:38.301Z,195.82
2023-02-17T19:10:08.069Z,193.73
2023-02-17T19:12:37.826Z,195.18
2023-02-17T19:15:07.601Z,193.27
2023-02-17T19:17:35.997Z,191.38
2023-02-17T19:20:04.931Z,193.57
2023-02-17T19:22:36.680Z,195.15
2023-02-17T19:25:06.005Z,190.20
2023-02-17T19:27:34.342Z,188.50
2023-02-17T19:30:02.425Z,186.57
2023-02-17T19:32:30.673Z,189.77
2023-02-17T19:35:01.416Z,191.30
2023-02-17T19:37:30.017Z,193.27
2023-02-17T19:39:59.398Z,185.85
2023-02-17T19:42:28.147Z,187.88
2023-02-17T19:44:56.184Z,191.07
2023-02-17T19:47:24.325Z,185.90
2023-02-17T19:49:52.430Z,190.13
2023-02-17T19:52:21.127Z,187.30
2023-02-17T19:54:50.772Z,183.85
2023-02-17T19:57:21.069Z,183.18
2023-02-17T19:59:49.261Z,190.63
2023-02-17T20:02:17.418Z,198.77
2023-02-17T20:04:46.292Z,193.82
2023-02-17T20:07:14.592Z,192.65
2023-02-17T20:09:43.168Z,191.52
2023-02-17T20:12:11.174Z,199.55
2023-02-17T20:14:42.108Z,190.98
2023-02-17T20:17:10.222Z,193.25
2023-02-17T20:19:39.395Z,194.77
2023-02-17T20:22:08.548Z,189.07
2023-02-17T20:24:40.647Z,191.18
2023-02-17T20:29:37.202Z,190.75
2023-02-17T20:32:07.050Z,196.18
2023-02-17T20:34:37.441Z,196.50
2023-02-17T20:37:06.443Z,190.40
2023-02-17T20:39:36.499Z,189.98
2023-02-17T20:42:05.325Z,195.10
2023-02-17T20:44:33.604Z,190.15
2023-02-17T20:47:02.758Z,189.45
2023-02-17T20:49:33.894Z,191.38
2023-02-17T20:52:01.822Z,195.35
2023-02-17T20:54:29.819Z,190.88
2023-02-17T20:57:00.950Z,190.85
2023-02-17T20:59:29.260Z,190.40
2023-02-17T21:01:57.308Z,188.63
2023-02-17T21:04:26.187Z,194.80
2023-02-17T21:06:55.719Z,188.30
2023-02-17T21:09:24.037Z,192.10
2023-02-17T21:11:52.041Z,191.38
2023-02-17T21:14:20.065Z,185.60
2023-02-17T21:16:48.649Z,185.80
2023-02-17T21:19:16.702Z,181.68
2023-02-17T21:21:44.685Z,180.15
2023-02-17T21:24:14.086Z,180.20
2023-02-17T22:20:45.713Z,177.48
2023-02-17T22:23:13.830Z,181.35
2023-02-17T22:25:43.213Z,177.23
2023-02-17T22:28:13.483Z,180.35
2023-02-17T22:30:42.900Z,176.87
2023-02-17T22:33:10.950Z,178.52
2023-02-17T22:35:39.457Z,180.23
2023-02-17T22:38:09.020Z,182.85
2023-02-17T22:40:40.094Z,174.23
2023-02-17T22:43:08.710Z,184.05
2023-02-17T22:45:37.230Z,182.65
2023-02-17T22:48:06.463Z,171.02
2023-02-17T22:50:34.992Z,167.70
2023-02-17T22:53:03.643Z,163.88
2023-02-17T22:55:34.104Z,169.50
2023-02-17T22:58:02.675Z,169.93
2023-02-17T23:00:30.821Z,171.90
2023-02-17T23:02:58.994Z,170.95
2023-02-17T23:05:27.288Z,165.63
2023-02-17T23:07:55.379Z,165.15
2023-02-17T23:10:23.620Z,167.15
2023-02-17T23:12:53.620Z,162.27
2023-02-17T23:15:39.168Z,163.75
2023-02-17T23:18:09.015Z,162.32
2023-02-17T23:20:39.525Z,162.50
2023-02-17T23:23:08.298Z,164.10
2023-02-17T23:25:39.170Z,166.65
2023-02-17T23:28:10.930Z,165.23
2023-02-17T23:30:39.534Z,166.10
2023-02-17T23:33:08.031Z,165.45
2023-02-17T23:35:41.235Z,165.43
2023-02-17T23:38:10.084Z,165.73
2023-02-17T23:40:39.174Z,163.18
2023-02-17T23:43:09.949Z,165.07
2023-02-17T23:45:39.476Z,160.98
2023-02-17T23:48:07.806Z,166.05
2023-02-17T23:50:35.941Z,170.50
2023-02-17T23:53:04.424Z,172.63
2023-02-17T23:55:32.516Z,166.95
2023-02-17T23:58:01.051Z,164.98
